Time;durP1;ratioP1;P1;durP2;ratioP2;P2;SDS_P1;SDS_P2;PMS_P1;PMS_P2;Temp;Humidity;BMP_temperature;BMP_pressure;BME280_temperature;BME280_humidity;BME280_pressure;Samples;Min_cycle;Max_cycle;Signal;HPM_P1;HPM_P2
2022/07/07 00:01:26;;;;;;;14.63;13.32;;;;;;;25.64;55.36;99298.47;5032713;28;20025;-83
2022/07/07 00:03:53;;;;;;;15.63;14.23;;;;;;;24.87;55.50;99183.88;5032533;28;20021;-84
2022/07/07 00:06:19;;;;;;;15.10;13.80;;;;;;;25.15;56.03;99244.47;5032668;28;20025;-84
2022/07/07 00:08:46;;;;;;;15.05;13.63;;;;;;;25.43;56.08;99293.50;5032668;28;20029;-84
2022/07/07 00:11:13;;;;;;;16.45;13.65;;;;;;;25.06;56.00;99259.66;5032592;28;20101;-84
2022/07/07 00:13:39;;;;;;;14.88;13.48;;;;;;;23.85;56.08;99051.34;5032684;28;20510;-84
2022/07/07 00:16:04;;;;;;;15.18;13.70;;;;;;;24.47;56.02;99163.28;5030984;28;20025;-84
2022/07/07 00:18:29;;;;;;;14.75;13.40;;;;;;;23.68;56.12;99045.47;5030954;28;20448;-84
2022/07/07 00:20:55;;;;;;;13.95;12.80;;;;;;;24.64;56.30;99243.94;5032265;28;20029;-83
2022/07/07 00:23:20;;;;;;;15.20;13.88;;;;;;;24.45;56.23;99172.75;5032442;28;20022;-84
2022/07/07 00:25:46;;;;;;;15.05;13.75;;;;;;;23.96;56.21;99098.75;5031006;28;20033;-84
2022/07/07 00:28:11;;;;;;;14.77;13.48;;;;;;;24.54;56.31;99219.69;5032422;28;20014;-84
2022/07/07 00:30:37;;;;;;;15.60;14.20;;;;;;;24.69;56.58;99249.31;5032104;28;20413;-84
2022/07/07 00:33:02;;;;;;;14.40;13.20;;;;;;;24.66;56.25;99233.66;5030800;28;20482;-84
2022/07/07 00:35:27;;;;;;;15.30;12.82;;;;;;;24.45;56.20;99199.75;5032225;28;20029;-84
2022/07/07 00:37:53;;;;;;;13.90;12.68;;;;;;;24.53;56.07;99218.09;5030896;28;20111;-84
2022/07/07 00:40:18;;;;;;;13.90;12.50;;;;;;;25.17;55.72;99284.72;5032034;28;20545;-84
2022/07/07 00:42:44;;;;;;;13.73;12.63;;;;;;;24.57;55.37;99184.06;5030821;28;20028;-84
2022/07/07 00:45:09;;;;;;;12.20;11.20;;;;;;;25.14;54.86;99266.38;5030454;28;20028;-84
2022/07/07 00:47:36;;;;;;;13.57;12.23;;;;;;;24.70;54.42;99219.34;5032275;28;20025;-84
2022/07/07 00:50:02;;;;;;;10.55;9.55;;;;;;;25.32;53.20;99271.13;5030633;28;20039;-83
2022/07/07 00:52:28;;;;;;;10.32;9.38;;;;;;;24.78;52.51;99204.44;5030452;28;20022;-84
2022/07/07 00:54:59;;;;;;;9.60;8.70;;;;;;;25.27;51.95;99271.19;5030483;28;20031;-84
2022/07/07 00:57:26;;;;;;;9.60;8.80;;;;;;;25.17;51.44;99261.22;5031665;28;20514;-84
2022/07/07 00:59:55;;;;;;;9.98;9.07;;;;;;;24.89;51.27;99207.88;5031998;28;20107;-84
2022/07/07 01:02:20;;;;;;;10.70;9.70;;;;;;;24.82;50.92;99183.09;5030520;28;20029;-84
2022/07/07 01:04:46;;;;;;;9.57;8.77;;;;;;;24.72;51.03;99192.06;5031539;28;20080;-84
2022/07/07 01:07:13;;;;;;;10.50;9.50;;;;;;;24.61;50.54;99163.50;5030331;28;20498;-84
2022/07/07 01:09:39;;;;;;;10.27;9.40;;;;;;;25.30;50.70;99271.41;5031668;28;20025;-83
2022/07/07 01:12:04;;;;;;;10.18;9.18;;;;;;;24.89;50.62;99219.50;5030334;28;20029;-83
2022/07/07 01:14:30;;;;;;;10.57;9.20;;;;;;;24.67;50.51;99186.69;5031905;28;20052;-84
2022/07/07 01:16:56;;;;;;;9.05;8.35;;;;;;;25.13;51.02;99267.47;5031702;28;20029;-84
2022/07/07 01:19:22;;;;;;;9.65;8.70;;;;;;;25.09;50.88;99271.81;5030748;28;20021;-84
2022/07/07 01:21:54;;;;;;;9.75;8.82;;;;;;;24.54;50.39;99179.22;5046542;28;20006;-84
2022/07/07 01:24:25;;;;;;;9.00;8.30;;;;;;;24.49;50.29;99193.50;5054496;28;20032;-83
2022/07/07 01:27:06;;;;;;;7.75;7.05;;;;;;;24.96;49.91;99263.22;5055887;28;20018;-84
2022/07/07 01:29:39;;;;;;;7.88;7.18;;;;;;;24.52;49.86;99190.25;5035678;28;20468;-84
2022/07/07 01:32:07;;;;;;;8.10;7.30;;;;;;;24.50;49.75;99187.03;5031506;28;20100;-84
2022/07/07 01:34:33;;;;;;;6.38;5.88;;;;;;;24.55;49.63;99207.81;5034377;28;20105;-84
2022/07/07 01:36:59;;;;;;;7.75;6.70;;;;;;;24.77;49.54;99243.34;5035833;28;20100;-84
2022/07/07 01:39:24;;;;;;;6.35;5.75;;;;;;;24.55;48.68;99208.63;5034739;28;20555;-84
2022/07/07 01:41:49;;;;;;;5.47;5.07;;;;;;;24.73;48.88;99220.66;5035425;28;20124;-84
2022/07/07 01:44:15;;;;;;;6.28;5.78;;;;;;;24.04;48.37;99127.84;5035028;28;20063;-84
2022/07/07 01:46:40;;;;;;;6.15;5.55;;;;;;;24.97;48.18;99255.91;5035195;28;20025;-84
2022/07/07 01:49:06;;;;;;;5.47;5.07;;;;;;;24.33;48.14;99186.56;5033965;28;20062;-84
2022/07/07 01:51:31;;;;;;;5.95;5.40;;;;;;;24.79;47.76;99230.38;5035337;28;20022;-84
2022/07/07 01:53:56;;;;;;;5.68;5.28;;;;;;;24.20;47.73;99112.41;5033881;28;20022;-84
2022/07/07 01:56:22;;;;;;;5.40;5.00;;;;;;;24.60;47.20;99170.00;5034968;28;20058;-84
2022/07/07 01:58:47;;;;;;;5.68;5.28;;;;;;;24.42;47.24;99141.72;5035082;28;20025;-84
2022/07/07 02:01:13;;;;;;;5.32;4.93;;;;;;;24.40;47.18;99144.69;5033700;28;20022;-84
2022/07/07 02:03:38;;;;;;;5.63;5.22;;;;;;;24.82;47.04;99220.91;5033498;28;20032;-84
2022/07/07 02:06:04;;;;;;;5.57;5.07;;;;;;;24.54;47.13;99207.00;5033596;28;20387;-85
2022/07/07 02:08:29;;;;;;;5.05;4.72;;;;;;;24.86;47.24;99248.97;5034746;28;20049;-84
2022/07/07 02:11:14;;;;;;;5.43;4.97;;;;;;;24.00;47.05;99125.97;5034869;28;20032;-84
2022/07/07 02:13:41;;;;;;;5.57;5.07;;;;;;;24.97;47.04;99275.66;5035227;28;20083;-83
2022/07/07 02:16:07;;;;;;;5.57;4.97;;;;;;;24.25;46.95;99187.91;5034796;28;20056;-84
2022/07/07 02:18:37;;;;;;;6.53;4.97;;;;;;;24.47;47.16;99209.16;5033648;28;20053;-84
2022/07/07 02:21:04;;;;;;;5.10;4.72;;;;;;;24.93;46.85;99277.28;5033476;28;20033;-84
2022/07/07 02:23:30;;;;;;;7.53;5.70;;;;;;;24.89;46.75;99270.81;5033559;28;20032;-84
2022/07/07 02:25:56;;;;;;;4.80;4.50;;;;;;;24.25;47.30;99176.31;5045852;28;20081;-84
2022/07/07 02:28:23;;;;;;;5.90;5.18;;;;;;;24.56;47.22;99231.03;5040122;28;20405;-84
2022/07/07 02:30:52;;;;;;;5.15;4.75;;;;;;;24.36;47.07;99189.53;5035700;28;20079;-84
2022/07/07 02:33:18;;;;;;;5.47;4.95;;;;;;;24.09;47.07;99135.91;5034832;28;20410;-84
2022/07/07 02:35:44;;;;;;;5.50;5.00;;;;;;;25.04;46.93;99288.84;5034907;28;20049;-84
2022/07/07 02:38:10;;;;;;;5.68;5.18;;;;;;;25.03;47.10;99290.75;5034426;28;20504;-84
2022/07/07 02:40:35;;;;;;;6.32;5.70;;;;;;;25.06;46.76;99283.97;5034435;28;20475;-84
2022/07/07 02:43:00;;;;;;;5.88;4.53;;;;;;;24.57;47.04;99254.22;5034221;28;20414;-84
2022/07/07 02:45:26;;;;;;;6.15;5.55;;;;;;;23.73;47.12;99134.41;5031664;28;20029;-84
2022/07/07 02:47:52;;;;;;;7.40;5.25;;;;;;;24.51;47.04;99223.72;5034049;28;20029;-84
2022/07/07 02:50:17;;;;;;;5.63;5.22;;;;;;;24.80;46.98;99287.88;5034150;28;20017;-84
2022/07/07 02:52:43;;;;;;;7.05;4.90;;;;;;;23.90;47.04;99142.19;5032834;28;20028;-84
2022/07/07 02:55:09;;;;;;;5.70;5.20;;;;;;;24.69;46.89;99252.81;5034055;28;20017;-84
2022/07/07 02:57:36;;;;;;;6.07;5.10;;;;;;;24.57;46.85;99255.03;5033993;28;20128;-84
2022/07/07 03:00:07;;;;;;;5.07;4.55;;;;;;;24.93;46.89;99281.88;5032884;28;20036;-84
2022/07/07 03:02:33;;;;;;;;;;;;;;;24.70;47.34;99292.25;5032956;28;20014;-84
2022/07/07 03:04:58;;;;;;;5.78;4.55;;;;;;;24.02;47.40;99169.66;5032384;28;19921;-84
2022/07/07 03:07:23;;;;;;;5.35;4.85;;;;;;;24.45;47.29;99243.72;5033951;28;20025;-84
2022/07/07 03:09:49;;;;;;;5.35;4.95;;;;;;;24.24;47.23;99212.47;5032551;28;20483;-84
2022/07/07 03:12:15;;;;;;;5.28;4.88;;;;;;;24.26;47.08;99235.41;5032453;28;20065;-84
2022/07/07 03:14:41;;;;;;;5.22;4.82;;;;;;;24.29;47.18;99224.09;5033726;28;20053;-84
2022/07/07 03:17:06;;;;;;;5.15;4.75;;;;;;;24.75;47.24;99302.22;5033798;28;20568;-84
2022/07/07 03:19:34;;;;;;;5.80;4.80;;;;;;;24.30;47.06;99228.41;5032546;28;20025;-84
2022/07/07 03:22:00;;;;;;;5.00;4.50;;;;;;;24.49;46.95;99255.59;5033404;28;20017;-83
2022/07/07 03:24:26;;;;;;;5.13;4.63;;;;;;;24.29;47.06;99215.19;5032223;28;20108;-84
2022/07/07 03:26:52;;;;;;;5.25;4.38;;;;;;;23.74;47.41;99133.31;5032247;28;20056;-84
2022/07/07 03:29:17;;;;;;;5.40;5.00;;;;;;;24.29;47.31;99239.47;5032337;28;20053;-84
2022/07/07 03:31:43;;;;;;;5.05;4.60;;;;;;;24.29;47.48;99236.78;5032198;28;20025;-84
2022/07/07 03:34:08;;;;;;;5.50;4.65;;;;;;;24.60;47.81;99283.38;5032024;28;20405;-84
2022/07/07 03:36:34;;;;;;;8.25;4.90;;;;;;;23.45;47.71;99106.16;5032372;28;20516;-84
2022/07/07 03:38:59;;;;;;;6.68;5.03;;;;;;;24.51;47.59;99269.59;5033356;28;20022;-84
2022/07/07 03:41:25;;;;;;;4.82;4.43;;;;;;;24.54;47.75;99293.38;5033471;28;20017;-84
2022/07/07 03:43:50;;;;;;;4.55;4.18;;;;;;;23.88;48.04;99177.53;5031721;28;20483;-83
2022/07/07 03:46:15;;;;;;;5.28;4.43;;;;;;;24.14;48.31;99226.81;5033142;28;20027;-84
2022/07/07 03:48:41;;;;;;;5.40;4.93;;;;;;;23.89;48.14;99181.84;5033345;28;20017;-84
2022/07/07 03:51:07;;;;;;;4.80;4.40;;;;;;;24.13;48.16;99222.50;5031765;28;20501;-84
2022/07/07 03:53:32;;;;;;;5.18;4.68;;;;;;;24.57;48.25;99298.22;5031739;28;20018;-84
2022/07/07 03:55:58;;;;;;;5.70;4.32;;;;;;;24.23;48.12;99237.84;5032570;28;20045;-84
2022/07/07 03:58:23;;;;;;;4.80;4.40;;;;;;;23.59;48.53;99136.88;5033102;28;20021;-84
2022/07/07 04:00:49;;;;;;;5.60;4.47;;;;;;;24.13;48.68;99219.00;5032998;28;20417;-84
2022/07/07 04:03:14;;;;;;;5.05;4.63;;;;;;;24.41;48.37;99261.56;5031095;28;20078;-84
2022/07/07 04:05:39;;;;;;;5.40;4.90;;;;;;;23.94;48.88;99200.69;5032527;28;20094;-84
2022/07/07 04:08:05;;;;;;;4.78;4.05;;;;;;;23.72;48.70;99186.69;5032858;28;20033;-84
2022/07/07 04:10:30;;;;;;;5.85;4.60;;;;;;;23.29;48.67;99131.50;5031441;28;20024;-84
2022/07/07 04:12:56;;;;;;;6.35;4.70;;;;;;;24.00;48.56;99199.59;5032885;28;20517;-84
2022/07/07 04:15:21;;;;;;;6.45;4.93;;;;;;;24.09;48.61;99211.44;5032269;28;20055;-84
2022/07/07 04:17:46;;;;;;;5.85;4.45;;;;;;;24.39;48.56;99261.03;5038297;28;20013;-84
2022/07/07 04:20:12;;;;;;;6.50;4.80;;;;;;;24.03;48.63;99190.97;5035417;28;20025;-84
2022/07/07 04:22:38;;;;;;;4.82;4.43;;;;;;;24.15;48.53;99214.94;5034066;28;20021;-84
2022/07/07 04:25:04;;;;;;;6.05;4.95;;;;;;;24.25;48.48;99219.50;5031428;28;20079;-84
2022/07/07 04:27:29;;;;;;;4.60;4.30;;;;;;;24.55;48.79;99278.81;5032452;28;20056;-84
2022/07/07 04:29:55;;;;;;;5.95;4.82;;;;;;;23.98;48.37;99184.78;5031216;28;20021;-84
2022/07/07 04:32:20;;;;;;;6.50;4.80;;;;;;;24.77;48.49;99291.94;5031269;28;20117;-84
2022/07/07 04:34:46;;;;;;;5.20;4.75;;;;;;;24.06;48.56;99151.84;5032432;28;20548;-84
2022/07/07 04:37:12;;;;;;;5.10;4.60;;;;;;;24.26;47.91;99176.03;5031097;28;20508;-84
2022/07/07 04:39:37;;;;;;;5.45;5.05;;;;;;;24.63;47.96;99253.94;5032493;28;20022;-84
2022/07/07 04:42:04;;;;;;;5.00;4.50;;;;;;;24.75;48.37;99272.50;5030932;28;20406;-84
2022/07/07 04:44:29;;;;;;;5.28;4.85;;;;;;;24.62;48.59;99244.22;5032104;28;20061;-84
2022/07/07 04:46:54;;;;;;;6.00;5.40;;;;;;;24.56;48.29;99225.63;5030919;28;20108;-84
2022/07/07 04:49:20;;;;;;;6.05;4.50;;;;;;;24.16;48.11;99151.00;5032109;28;20559;-84
2022/07/07 04:51:45;;;;;;;5.18;4.88;;;;;;;23.92;48.05;99119.28;5032041;28;20029;-83
2022/07/07 04:54:11;;;;;;;5.93;5.38;;;;;;;24.75;48.51;99280.59;5032126;28;20431;-84
2022/07/07 04:56:36;;;;;;;5.45;4.93;;;;;;;24.37;48.08;99231.63;5030296;28;20049;-84
2022/07/07 04:59:02;;;;;;;5.45;4.95;;;;;;;24.01;48.04;99141.88;5030285;28;20080;-84
2022/07/07 05:01:27;;;;;;;5.43;4.93;;;;;;;24.15;48.02;99157.47;5031838;28;20017;-84
2022/07/07 05:03:53;;;;;;;5.43;4.93;;;;;;;24.27;47.66;99166.91;5031939;28;20437;-84
2022/07/07 05:06:18;;;;;;;5.30;4.63;;;;;;;24.62;47.34;99222.63;5031778;28;20516;-84
2022/07/07 05:08:43;;;;;;;4.97;4.57;;;;;;;24.83;47.16;99258.41;5030988;28;20135;-84
2022/07/07 05:11:09;;;;;;;5.93;4.72;;;;;;;24.22;47.18;99144.50;5030422;28;20021;-84
2022/07/07 05:13:34;;;;;;;4.97;4.55;;;;;;;24.77;47.22;99224.44;5030197;28;20029;-84
2022/07/07 05:16:00;;;;;;;6.22;5.72;;;;;;;25.15;47.03;99306.63;5031644;28;20539;-84
2022/07/07 05:18:26;;;;;;;5.65;4.65;;;;;;;24.88;46.78;99249.47;5023304;28;20028;-84
2022/07/07 05:20:51;;;;;;;5.22;4.72;;;;;;;25.16;46.84;99283.09;5026087;28;20018;-84
2022/07/07 05:23:17;;;;;;;5.15;4.60;;;;;;;24.56;46.82;99166.25;5010795;28;20414;-84
2022/07/07 05:25:42;;;;;;;5.22;4.72;;;;;;;24.84;46.88;99206.03;5025603;28;20035;-84
2022/07/07 05:28:07;;;;;;;4.88;4.38;;;;;;;25.15;46.72;99241.78;5032105;28;20013;-84
2022/07/07 05:30:33;;;;;;;5.55;4.85;;;;;;;24.15;46.24;99101.63;5030694;28;20088;-84
2022/07/07 05:32:58;;;;;;;7.07;4.95;;;;;;;25.13;46.27;99246.66;5020258;28;20105;-83
2022/07/07 05:35:24;;;;;;;5.25;4.40;;;;;;;25.49;46.33;99300.47;5029778;28;20030;-84
2022/07/07 05:37:49;;;;;;;7.00;4.95;;;;;;;24.83;46.29;99190.09;5037868;28;20026;-84
2022/07/07 05:40:15;;;;;;;5.20;4.80;;;;;;;24.11;46.28;99067.41;5054757;28;20012;-84
2022/07/07 05:42:40;;;;;;;5.05;4.60;;;;;;;24.99;45.95;99203.25;5028168;28;20095;-86
2022/07/07 05:45:06;;;;;;;7.15;4.85;;;;;;;25.12;46.19;99236.13;5012405;28;20025;-84
2022/07/07 05:47:32;;;;;;;5.40;4.90;;;;;;;25.58;45.94;99294.19;5021209;28;20104;-84
2022/07/07 05:49:57;;;;;;;6.28;4.63;;;;;;;25.13;46.00;99235.84;5026249;28;20028;-84
2022/07/07 05:52:23;;;;;;;5.80;5.30;;;;;;;25.74;45.97;99313.84;5028749;28;20100;-84
2022/07/07 05:54:48;;;;;;;6.15;5.55;;;;;;;25.06;45.70;99191.31;5026218;28;20064;-84
2022/07/07 05:57:14;;;;;;;5.43;4.93;;;;;;;24.76;45.41;99131.00;5029867;28;20522;-84
2022/07/07 05:59:40;;;;;;;5.38;4.88;;;;;;;25.37;45.42;99224.34;5030888;28;20142;-85
2022/07/07 06:02:06;;;;;;;5.70;5.20;;;;;;;25.65;45.28;99274.94;5019453;28;20029;-84
2022/07/07 06:04:31;;;;;;;5.25;4.75;;;;;;;25.20;45.11;99203.91;5017560;28;20022;-84
2022/07/07 06:06:57;;;;;;;5.53;4.90;;;;;;;25.36;45.03;99253.28;5016233;28;20034;-84
2022/07/07 06:09:23;;;;;;;5.40;5.00;;;;;;;25.38;44.82;99247.59;5018178;28;20409;-84
2022/07/07 06:11:49;;;;;;;5.22;4.72;;;;;;;25.79;45.16;99302.16;5021919;28;20022;-84
2022/07/07 06:14:15;;;;;;;5.40;5.00;;;;;;;25.21;45.06;99196.63;5019163;28;20058;-85
2022/07/07 06:16:43;;;;;;;6.15;4.80;;;;;;;25.59;45.19;99257.16;5009901;28;20565;-84
2022/07/07 06:19:10;;;;;;;6.15;5.50;;;;;;;25.36;45.23;99220.03;5030028;28;20021;-84
2022/07/07 06:21:36;;;;;;;7.10;5.10;;;;;;;25.54;45.03;99224.75;5019944;28;20052;-84
2022/07/07 06:24:02;;;;;;;6.85;5.35;;;;;;;25.36;44.90;99211.94;5022995;28;20066;-84
2022/07/07 06:26:28;;;;;;;6.53;5.20;;;;;;;25.43;44.70;99204.28;5038703;28;20029;-84
2022/07/07 06:28:53;;;;;;;7.03;6.07;;;;;;;25.64;44.62;99232.75;5033894;28;20037;-84
2022/07/07 06:31:19;;;;;;;6.78;6.18;;;;;;;25.86;44.54;99270.19;5021980;28;20116;-84
2022/07/07 06:33:44;;;;;;;7.65;6.90;;;;;;;25.80;45.07;99264.00;5034336;28;20018;-84
2022/07/07 06:36:10;;;;;;;7.32;6.10;;;;;;;25.93;44.86;99263.34;5033080;28;20063;-84
2022/07/07 06:38:35;;;;;;;7.63;6.93;;;;;;;26.07;45.12;99271.63;5024050;28;20021;-83
2022/07/07 06:41:00;;;;;;;7.28;6.68;;;;;;;26.47;45.55;99326.44;5017026;28;20104;-84
2022/07/07 06:43:26;;;;;;;6.28;5.78;;;;;;;25.90;45.18;99249.59;5031064;28;20104;-84
2022/07/07 06:45:51;;;;;;;6.82;6.18;;;;;;;25.98;44.79;99254.38;5032675;28;20021;-85
2022/07/07 06:48:17;;;;;;;7.35;5.57;;;;;;;26.19;44.68;99282.06;5019922;28;20105;-86
2022/07/07 06:50:42;;;;;;;6.72;5.80;;;;;;;25.84;44.27;99227.19;5027171;28;20473;-84
2022/07/07 06:53:08;;;;;;;9.30;8.40;;;;;;;26.25;44.46;99286.31;5020994;28;20020;-84
2022/07/07 06:55:34;;;;;;;8.13;6.18;;;;;;;25.89;44.12;99229.84;5033234;28;20025;-84
2022/07/07 06:57:59;;;;;;;7.88;6.63;;;;;;;26.21;44.18;99271.75;5022711;28;20064;-84
2022/07/07 07:00:25;;;;;;;7.80;6.22;;;;;;;26.69;44.02;99312.38;5013672;28;20057;-84
2022/07/07 07:02:50;;;;;;;7.13;6.53;;;;;;;25.96;43.96;99195.13;5012621;28;20068;-84
2022/07/07 07:05:16;;;;;;;11.00;9.88;;;;;;;26.85;43.56;99321.97;5010966;28;20022;-84
2022/07/07 07:07:42;;;;;;;7.18;6.47;;;;;;;26.37;43.40;99240.75;5013609;28;20022;-84
2022/07/07 07:10:08;;;;;;;5.90;5.35;;;;;;;26.29;43.58;99211.56;5012105;28;20524;-84
2022/07/07 07:12:34;;;;;;;6.55;5.95;;;;;;;26.69;43.51;99266.34;5012132;28;20022;-84
2022/07/07 07:15:00;;;;;;;11.40;9.18;;;;;;;26.66;43.18;99265.00;5012295;28;20108;-85
2022/07/07 07:17:25;;;;;;;13.32;9.20;;;;;;;25.97;42.71;99141.84;5012357;28;20080;-84
2022/07/07 07:19:51;;;;;;;10.13;7.30;;;;;;;26.74;42.79;99296.06;5013518;28;20026;-85
2022/07/07 07:22:17;;;;;;;6.80;6.10;;;;;;;25.94;42.75;99129.69;5012196;28;20022;-85
2022/07/07 07:24:43;;;;;;;9.27;6.80;;;;;;;26.44;42.59;99207.91;5012133;28;20025;-85
2022/07/07 07:27:08;;;;;;;8.38;6.70;;;;;;;27.18;42.67;99331.84;5013452;28;20048;-85
2022/07/07 07:29:33;;;;;;;11.68;6.70;;;;;;;26.23;42.52;99174.84;5025474;28;20437;-85
2022/07/07 07:31:59;;;;;;;11.15;9.18;;;;;;;25.52;42.24;99103.38;5020566;28;20033;-85
2022/07/07 07:34:24;;;;;;;12.32;11.05;;;;;;;26.87;41.97;99252.84;5022248;28;20017;-85
2022/07/07 07:36:50;;;;;;;11.40;9.95;;;;;;;27.16;42.03;99295.28;5027613;28;20021;-85
2022/07/07 07:39:15;;;;;;;8.55;7.15;;;;;;;27.33;41.79;99308.31;5024967;28;20025;-85
2022/07/07 07:41:41;;;;;;;7.65;6.95;;;;;;;27.33;41.56;99319.97;5022688;28;20485;-85
2022/07/07 07:44:06;;;;;;;9.00;7.60;;;;;;;27.00;41.35;99251.34;5014745;28;20593;-85
2022/07/07 07:46:31;;;;;;;8.20;7.45;;;;;;;26.00;41.56;99053.88;5013484;28;20018;-86
2022/07/07 07:48:59;;;;;;;8.40;7.50;;;;;;;27.05;41.23;99204.38;5020229;28;20399;-85
2022/07/07 07:51:25;;;;;;;7.78;6.80;;;;;;;27.53;40.83;99267.34;5026085;28;20025;-85
2022/07/07 07:53:50;;;;;;;9.00;7.22;;;;;;;27.78;40.86;99302.22;5029713;28;20026;-85
2022/07/07 07:56:15;;;;;;;8.88;7.07;;;;;;;27.33;40.68;99216.16;5012492;28;20497;-85
2022/07/07 07:58:41;;;;;;;8.05;7.20;;;;;;;28.16;39.86;99351.78;5013579;28;20112;-85
2022/07/07 08:01:06;;;;;;;8.00;7.30;;;;;;;27.52;40.09;99261.13;5024207;28;20021;-85
2022/07/07 08:03:32;;;;;;;8.38;7.47;;;;;;;27.88;40.05;99295.03;5012485;28;20037;-86
2022/07/07 08:05:57;;;;;;;8.95;8.05;;;;;;;27.69;39.73;99246.25;5025184;28;20021;-86
2022/07/07 08:08:23;;;;;;;9.38;7.32;;;;;;;28.05;40.03;99308.81;5052535;28;20017;-86
2022/07/07 08:10:48;;;;;;;7.75;6.75;;;;;;;27.94;39.84;99288.41;5045092;28;20480;-85
2022/07/07 08:13:13;;;;;;;7.15;6.45;;;;;;;27.62;40.04;99240.41;5026134;28;20009;-85
2022/07/07 08:15:39;;;;;;;7.88;6.30;;;;;;;27.85;39.78;99263.84;5015602;28;20550;-86
2022/07/07 08:18:04;;;;;;;7.55;6.85;;;;;;;27.53;39.60;99205.78;5024617;28;20078;-85
2022/07/07 08:20:30;;;;;;;7.45;6.80;;;;;;;28.15;39.52;99286.94;5032607;28;20057;-86
2022/07/07 08:22:55;;;;;;;8.32;7.53;;;;;;;27.68;39.88;99214.78;5021935;28;20025;-85
2022/07/07 08:25:21;;;;;;;6.18;5.68;;;;;;;27.60;39.57;99194.56;5031892;28;20104;-85
2022/07/07 08:27:47;;;;;;;6.38;5.78;;;;;;;27.82;38.89;99224.56;5014476;28;20022;-85
2022/07/07 08:30:13;;;;;;;10.80;9.73;;;;;;;28.76;39.28;99332.75;5021139;28;20033;-85
2022/07/07 08:32:39;;;;;;;7.10;6.30;;;;;;;28.72;38.80;99301.06;5020512;28;20120;-85
2022/07/07 08:35:05;;;;;;;6.13;5.63;;;;;;;28.91;38.53;99323.53;5011142;28;20045;-85
2022/07/07 08:37:31;;;;;;;7.22;5.47;;;;;;;28.66;38.63;99264.25;5017583;28;20032;-85
2022/07/07 08:39:56;;;;;;;6.78;6.18;;;;;;;28.56;38.71;99232.66;5031658;28;20029;-85
2022/07/07 08:42:22;;;;;;;9.82;7.82;;;;;;;28.66;38.17;99232.44;5025589;28;20103;-85
2022/07/07 08:44:47;;;;;;;6.68;6.15;;;;;;;28.45;38.42;99223.13;5016349;28;20030;-86
2022/07/07 08:47:13;;;;;;;9.32;8.40;;;;;;;28.98;37.97;99309.50;5023663;28;20025;-85
2022/07/07 08:49:39;;;;;;;6.78;6.18;;;;;;;28.47;38.00;99229.88;5031026;28;20465;-85
2022/07/07 08:52:05;;;;;;;7.00;6.50;;;;;;;28.96;38.12;99295.44;5028473;28;20051;-86
2022/07/07 08:54:32;;;;;;;7.50;6.80;;;;;;;29.10;38.66;99324.22;5015813;28;20030;-85
2022/07/07 08:56:58;;;;;;;6.07;5.57;;;;;;;28.88;38.56;99310.53;5036569;28;20041;-85
2022/07/07 08:59:23;;;;;;;6.20;5.60;;;;;;;28.74;38.17;99277.13;5047838;28;20025;-84
2022/07/07 09:01:54;;;;;;;7.80;7.00;;;;;;;29.06;38.31;99257.97;5026490;28;20029;-85
2022/07/07 09:04:20;;;;;;;8.43;7.53;;;;;;;29.46;37.90;99292.72;5033983;28;20123;-85
2022/07/07 09:07:00;;;;;;;7.63;6.75;;;;;;;29.73;37.46;99317.91;5032695;28;20557;-85
2022/07/07 09:09:44;;;;;;;6.13;5.53;;;;;;;29.60;37.32;99318.75;5024346;28;20060;-85
2022/07/07 09:12:12;;;;;;;8.48;6.70;;;;;;;29.52;37.70;99307.81;5029249;28;20116;-85
2022/07/07 09:14:49;;;;;;;9.52;7.90;;;;;;;29.12;37.53;99242.34;5026957;28;20018;-85
2022/07/07 09:17:28;;;;;;;6.13;5.53;;;;;;;29.84;36.98;99314.94;5031237;28;20017;-84
2022/07/07 09:20:07;;;;;;;6.22;5.55;;;;;;;30.00;36.61;99316.94;5016503;28;20036;-85
2022/07/07 09:22:56;;;;;;;6.45;5.85;;;;;;;30.33;36.56;99309.28;5017458;28;20029;-84
2022/07/07 09:25:24;;;;;;;7.15;6.45;;;;;;;30.49;35.94;99295.28;5011761;28;20034;-84
2022/07/07 09:28:06;;;;;;;7.90;7.10;;;;;;;30.41;35.57;99290.56;5025033;28;20120;-85
2022/07/07 09:30:43;;;;;;;5.82;5.32;;;;;;;29.98;35.56;99221.16;5021021;28;20119;-85
2022/07/07 09:33:21;;;;;;;6.32;5.82;;;;;;;30.40;35.48;99308.03;5038691;28;20029;-85
2022/07/07 09:38:34;;;;;;;9.23;8.32;;;;;;;30.11;36.21;99276.69;5031324;28;20469;-85
2022/07/07 09:41:12;;;;;;;6.43;5.90;;;;;;;30.20;35.55;99214.88;5024905;28;20059;-85
2022/07/07 09:43:51;;;;;;;7.22;6.63;;;;;;;31.03;34.63;99271.38;5019058;28;20116;-84
2022/07/07 09:46:16;;;;;;;5.50;5.00;;;;;;;31.45;34.47;99294.38;5013310;28;20445;-84
2022/07/07 09:48:53;;;;;;;6.35;5.75;;;;;;;30.53;34.41;99171.72;5016258;28;20047;-84
2022/07/07 09:51:27;;;;;;;5.47;4.93;;;;;;;30.72;34.14;99217.78;5040967;28;20540;-84
2022/07/07 09:53:56;;;;;;;5.97;5.38;;;;;;;31.02;34.62;99300.56;5012221;28;20046;-84
2022/07/07 09:56:23;;;;;;;4.97;4.47;;;;;;;30.62;34.24;99237.16;5026971;28;20128;-85
2022/07/07 09:58:49;;;;;;;5.80;5.28;;;;;;;30.86;33.81;99234.78;5023531;28;20029;-84
2022/07/07 10:01:16;;;;;;;9.75;8.55;;;;;;;31.33;33.99;99316.84;5037169;28;20036;-85
2022/07/07 10:03:43;;;;;;;7.45;6.80;;;;;;;31.10;34.22;99294.31;5042117;28;20101;-85
2022/07/07 10:06:11;;;;;;;6.20;5.60;;;;;;;30.70;34.49;99266.34;5023643;28;20036;-84
2022/07/07 10:08:43;;;;;;;6.07;5.50;;;;;;;31.18;33.91;99279.91;5023467;28;20544;-84
2022/07/07 10:11:11;;;;;;;6.18;4.80;;;;;;;31.52;33.29;99251.81;5031552;28;20021;-84
2022/07/07 10:13:41;;;;;;;5.38;4.97;;;;;;;32.15;33.03;99287.69;5036044;28;20018;-84
2022/07/07 10:16:07;;;;;;;6.30;5.80;;;;;;;32.51;32.49;99287.22;5024935;28;20119;-84
2022/07/07 10:18:33;;;;;;;4.60;4.20;;;;;;;32.46;31.55;99206.22;5020232;28;20076;-85
2022/07/07 10:21:00;;;;;;;5.90;5.30;;;;;;;33.00;32.05;99285.69;5026086;28;20032;-85
2022/07/07 10:23:26;;;;;;;7.03;6.20;;;;;;;32.61;31.92;99251.31;5025793;28;20024;-85
2022/07/07 10:26:02;;;;;;;5.68;4.88;;;;;;;31.77;31.83;99170.22;5015479;28;20053;-85
2022/07/07 10:28:51;;;;;;;8.18;6.70;;;;;;;32.45;32.30;99272.16;5031708;28;20449;-85
2022/07/07 10:31:22;;;;;;;7.07;5.85;;;;;;;32.20;31.81;99159.91;5028782;28;20067;-84
2022/07/07 10:34:04;;;;;;;6.57;5.90;;;;;;;32.33;31.18;99162.75;5028902;28;20044;-84
2022/07/07 10:36:52;;;;;;;7.57;6.97;;;;;;;32.88;31.84;99263.75;5025353;28;20022;-84
2022/07/07 10:39:21;;;;;;;5.50;5.05;;;;;;;32.68;32.32;99272.66;5010988;28;20046;-85
2022/07/07 10:42:15;;;;;;;5.28;4.80;;;;;;;32.08;32.52;99241.75;5017718;28;20029;-85
2022/07/07 10:44:43;;;;;;;5.80;5.30;;;;;;;31.96;33.14;99271.69;5018424;28;20064;-85
2022/07/07 10:47:12;;;;;;;4.90;4.53;;;;;;;31.68;33.38;99275.88;5032481;28;20167;-85
2022/07/07 10:49:50;;;;;;;5.80;5.20;;;;;;;31.47;33.52;99262.91;5051075;28;20028;-85
2022/07/07 10:52:19;;;;;;;6.13;5.07;;;;;;;31.88;32.37;99204.22;5022751;28;20159;-84
2022/07/07 10:54:54;;;;;;;7.30;5.13;;;;;;;32.75;31.38;99238.22;5031335;28;20033;-85
2022/07/07 10:57:22;;;;;;;11.77;5.97;;;;;;;33.11;30.83;99214.97;5017437;28;20192;-84
2022/07/07 10:59:58;;;;;;;5.50;5.10;;;;;;;33.83;30.56;99251.19;5032480;28;20028;-85
2022/07/07 11:02:50;;;;;;;13.18;5.15;;;;;;;34.30;28.99;99257.91;5012234;28;20088;-85
2022/07/07 11:05:16;;;;;;;5.15;4.03;;;;;;;34.66;29.35;99251.63;5025655;28;20026;-85
2022/07/07 11:08:08;;;;;;;11.48;5.32;;;;;;;34.94;28.41;99256.41;5051761;28;20138;-85
2022/07/07 11:10:36;;;;;;;5.72;4.93;;;;;;;34.67;29.10;99247.72;5049227;28;20562;-84
2022/07/07 11:13:36;;;;;;;5.93;5.43;;;;;;;33.96;29.43;99225.44;5036971;28;20029;-84
2022/07/07 11:16:21;;;;;;;8.50;5.00;;;;;;;33.76;30.19;99257.22;5008632;28;20065;-84
2022/07/07 11:18:57;;;;;;;5.35;4.95;;;;;;;33.20;30.96;99236.78;5021403;28;20030;-83
2022/07/07 11:21:32;;;;;;;5.50;4.88;;;;;;;33.12;31.02;99254.88;5026531;28;20033;-83
2022/07/07 11:23:59;;;;;;;5.88;5.22;;;;;;;32.17;31.09;99110.59;5022339;28;20080;-83
2022/07/07 11:26:26;;;;;;;5.32;4.88;;;;;;;33.11;30.89;99232.19;5017657;28;20434;-83
2022/07/07 11:28:53;;;;;;;7.03;4.57;;;;;;;33.32;30.58;99261.47;5019410;28;20029;-83
2022/07/07 11:31:18;;;;;;;6.25;4.32;;;;;;;32.29;30.62;99093.50;5016488;28;20080;-83
2022/07/07 11:33:55;;;;;;;5.47;5.07;;;;;;;33.27;30.63;99258.94;5024888;28;20033;-83
2022/07/07 11:36:26;;;;;;;4.95;4.50;;;;;;;33.54;30.61;99254.88;5031861;28;20025;-84